Latest Weather Observations for Coonabarabran Airport

IDN60801

Issued at 3:05 pm EST Saturday 23 August 2014 (issued every 30 minutes, with the page automatically refreshed every 10 minutes)

About weather observations | Map of weather stations | Latest weather observations for NSW | Other Formats
Station Details ID: 064017 Name: COONABARABRAN AIRPORT AWS Lat: -31.33 Lon: 149.27 Height: 645.0 m
Data from the previous 72 hours. | See also: Recent months for locations in New South Wales
Date/Time
EST
Temp
°C
App
Temp
°C
Dew
Point
Rel
Hum
%
Delta-T
°C
Wind Press
QNH
hPa
Press
MSL
hPa
Rain
since 9 am
mm
Dir
 
Spd
km/h
Gust
km/h
Spd
kts
Gust
kts
23/03:00pm 17.3 13.3 6.8 50 5.4 E 17 28 9 15 1026.2 1026.0 0.0
23/02:30pm 17.0 13.2 5.9 48 5.6 E 15 20 8 11 1026.4 - 0.0
23/02:00pm 16.2 12.5 6.3 52 5.0 E 15 24 8 13 1026.7 1026.5 0.0
23/01:30pm 16.8 14.0 8.5 58 4.4 ENE 13 19 7 10 1026.8 - 0.0
23/01:00pm 15.7 12.9 7.0 56 4.4 E 11 17 6 9 1027.1 1026.9 0.0
23/12:30pm 16.3 13.4 8.0 58 4.3 ESE 13 20 7 11 1027.5 - 0.0
23/12:00pm 15.6 12.5 7.1 57 4.3 E 13 20 7 11 1028.0 1027.8 0.0
23/11:30am 14.9 11.0 7.0 59 4.0 ENE 17 24 9 13 1028.3 - 0.0
23/11:00am 14.6 11.4 8.3 66 3.3 E 15 24 8 13 1028.7 1028.6 0.0
23/10:30am 13.7 10.3 7.5 66 3.2 E 15 20 8 11 1028.7 - 0.0
23/10:00am 12.8 10.2 7.7 71 2.6 SE 11 15 6 8 1028.9 1028.8 0.0
23/09:30am 11.3 8.8 8.0 80 1.7 S 11 13 6 7 1029.3 - 0.0
23/09:00am 9.8 7.2 7.9 88 0.9 S 11 15 6 8 1029.3 1029.1 0.2
23/08:30am 9.0 6.1 8.1 94 0.4 S 13 15 7 8 1029.1 - 0.2
23/08:00am 8.4 5.8 7.8 96 0.3 SSW 11 13 6 7 1028.8 1028.7 0.2
23/07:30am 7.5 4.4 7.4 99 0.0 SSW 13 13 7 7 1028.5 - 0.2
23/07:00am 7.2 4.4 7.1 99 0.0 S 11 15 6 8 1028.3 1028.1 0.2
23/06:30am 6.6 3.7 6.5 99 0.0 S 11 13 6 7 1028.1 - 0.0
23/06:00am 6.3 3.3 6.2 99 0.0 S 11 13 6 7 1027.9 1027.7 0.0
23/05:30am 6.4 3.5 6.3 99 0.0 S 11 13 6 7 1027.5 - 0.0
23/05:00am 6.7 3.8 6.6 99 0.0 SSW 11 15 6 8 1027.3 1027.1 0.0
23/04:30am 6.7 4.1 6.0 95 0.3 S 9 15 5 8 1027.0 - 0.0
23/04:00am 8.0 5.2 7.1 94 0.4 S 11 13 6 7 1026.9 1026.7 0.0
23/03:30am 7.2 4.6 6.1 93 0.5 S 9 19 5 10 1027.1 - 0.0
23/03:00am 8.1 4.8 6.6 90 0.7 ESE 13 20 7 11 1027.3 1027.1 0.0
23/02:30am 7.7 5.1 6.3 91 0.7 SSE 9 13 5 7 1027.3 - 0.0
23/02:00am 7.8 5.3 6.4 91 0.7 SSE 9 15 5 8 1027.5 1027.3 0.0
23/01:30am 7.6 4.6 5.9 89 0.8 SSE 11 15 6 8 1027.8 - 0.0
23/01:00am 8.0 5.0 6.1 88 0.9 ESE 11 15 6 8 1027.9 1027.7 0.0
23/12:30am 8.3 5.4 6.3 87 1.0 SE 11 15 6 8 1027.9 - 0.0
23/12:00am 8.3 4.9 5.9 85 1.1 ESE 13 19 7 10 1027.9 1027.7 0.0
 
Date/Time
EST
Temp
°C
App
Temp
°C
Dew
Point
Rel
Hum
%
Delta-T
°C
Wind Press
QNH
hPa
Press
MSL
hPa
Rain
since 9 am
mm
Dir
 
Spd
km/h
Gust
km/h
Spd
kts
Gust
kts
22/11:30pm 8.3 5.7 6.3 87 1.0 S 9 13 5 7 1028.0 - 0.0
22/11:00pm 8.4 5.8 6.0 85 1.1 S 9 13 5 7 1028.1 1027.9 0.0
22/10:30pm 8.9 6.0 6.3 84 1.2 S 11 13 6 7 1028.2 - 0.0
22/10:00pm 8.4 5.8 6.0 85 1.1 S 9 13 5 7 1028.4 1028.2 0.0
22/09:30pm 8.9 6.2 5.8 81 1.5 SSW 9 13 5 7 1028.4 - 0.0
22/09:00pm 9.9 7.3 6.1 77 1.8 S 9 30 5 16 1028.3 1028.1 0.0
22/08:30pm 10.0 7.3 5.4 73 2.2 S 9 15 5 8 1028.1 - 0.0
22/08:00pm 10.7 8.0 5.7 71 2.4 SSE 9 15 5 8 1027.8 1027.6 0.0
22/07:30pm 10.5 7.0 5.5 71 2.4 SSE 13 15 7 8 1027.6 - 0.0
22/07:00pm 10.8 7.6 5.1 68 2.7 SSE 11 15 6 8 1027.2 1027.0 0.0
22/06:30pm 10.9 8.2 5.7 70 2.5 S 9 13 5 7 1027.0 - 0.0
22/06:00pm 11.0 8.3 5.5 69 2.6 SSE 9 13 5 7 1026.6 1026.4 0.0
22/05:30pm 11.9 8.8 5.5 65 3.1 ESE 11 15 6 8 1026.4 - 0.0
22/05:00pm 13.0 8.9 4.2 55 4.1 ESE 15 19 8 10 1026.2 1026.0 0.0
22/04:30pm 13.3 10.0 4.5 55 4.2 SE 11 15 6 8 1026.2 - 0.0
22/04:00pm 12.1 8.3 5.9 66 3.0 SE 15 26 8 14 1026.0 1025.7 0.0
22/03:30pm 13.4 8.1 4.8 56 4.1 ESE 22 30 12 16 1026.0 - 0.0
22/03:00pm 16.5 12.0 6.9 53 4.9 SE 20 30 11 16 1025.9 1025.6 0.0
22/02:30pm 16.7 13.2 5.3 47 5.7 E 13 26 7 14 1026.1 - 0.0
22/02:00pm 16.4 12.5 5.4 48 5.4 E 15 20 8 11 1026.3 1026.1 0.0
22/01:30pm 16.1 11.3 4.8 47 5.5 E 19 32 10 17 1026.7 - 0.0
22/01:00pm 16.6 12.4 5.9 49 5.3 E 17 24 9 13 1027.1 1026.9 0.0
22/12:30pm 15.9 12.3 6.6 54 4.7 E 15 24 8 13 1027.6 - 0.0
22/12:00pm 14.7 10.5 5.5 54 4.5 E 17 26 9 14 1028.1 1027.9 0.0
22/11:30am 14.9 11.0 7.0 59 4.0 ENE 17 26 9 14 1028.6 - 0.0
22/11:00am 14.4 10.5 7.2 62 3.6 E 17 24 9 13 1029.2 1029.0 0.0
22/10:30am 13.5 9.0 6.1 61 3.6 ENE 19 22 10 12 1029.3 - 0.0
22/10:00am 12.6 9.2 7.5 71 2.6 ESE 15 24 8 13 1029.6 1029.4 0.0
22/09:30am 11.6 7.7 7.1 74 2.2 E 17 28 9 15 1029.6 - 0.0
22/09:00am 10.5 7.5 7.6 82 1.4 ESE 13 22 7 12 1029.6 1029.4 0.0
22/08:30am 8.8 6.5 7.6 92 0.6 S 9 15 5 8 1029.4 - 0.0
22/08:00am 7.9 5.5 7.1 95 0.4 S 9 13 5 7 1029.1 1028.9 0.0
22/07:30am 7.1 4.3 7.0 99 0.0 SSW 11 13 6 7 1028.5 - 0.0
22/07:00am 6.1 3.1 6.0 99 0.0 SW 11 13 6 7 1028.2 1028.0 0.0
22/06:30am 5.8 2.7 5.7 99 0.0 SSE 11 13 6 7 1027.8 - 0.0
22/06:00am 6.0 3.0 5.9 99 0.0 SSE 11 15 6 8 1027.3 1027.1 0.0
22/05:30am 6.2 3.6 5.9 98 0.1 SSW 9 17 5 9 1027.1 - 0.0
22/05:00am 6.8 4.1 5.7 93 0.5 S 9 13 5 7 1027.0 1026.8 0.0
22/04:30am 7.2 4.5 5.8 91 0.7 SSE 9 15 5 8 1026.8 - 0.0
22/04:00am 7.5 4.9 6.1 91 0.7 S 9 17 5 9 1026.6 1026.4 0.0
22/03:30am 6.9 3.9 5.8 93 0.5 SE 11 17 6 9 1026.5 - 0.0
22/03:00am 6.6 4.0 6.2 97 0.2 S 9 15 5 8 1026.6 1026.4 0.0
22/02:30am 6.7 3.7 6.0 95 0.3 S 11 13 6 7 1026.6 - 0.0
22/02:00am 6.9 3.8 5.7 92 0.6 S 11 15 6 8 1026.9 1026.7 0.0
22/01:30am 7.3 4.7 6.2 93 0.5 SE 9 13 5 7 1027.1 - 0.0
22/01:00am 7.7 5.3 6.8 94 0.4 SSE 9 15 5 8 1027.1 1026.9 0.0
22/12:30am 7.3 4.3 6.1 92 0.6 ESE 11 15 6 8 1027.2 - 0.0
22/12:00am 8.2 4.6 6.7 90 0.7 ESE 15 20 8 11 1027.1 1026.9 0.0
 
Date/Time
EST
Temp
°C
App
Temp
°C
Dew
Point
Rel
Hum
%
Delta-T
°C
Wind Press
QNH
hPa
Press
MSL
hPa
Rain
since 9 am
mm
Dir
 
Spd
km/h
Gust
km/h
Spd
kts
Gust
kts
21/11:30pm 7.4 4.4 6.2 92 0.6 ESE 11 15 6 8 1027.1 - 0.0
21/11:00pm 7.2 4.7 6.5 95 0.3 SSE 9 20 5 11 1027.1 1026.9 0.0
21/10:30pm 7.2 4.3 6.5 95 0.3 S 11 13 6 7 1027.0 - 0.0
21/10:00pm 7.4 4.9 6.5 94 0.4 S 9 13 5 7 1026.9 1026.7 0.0
21/09:30pm 7.6 4.4 6.7 94 0.4 SSW 13 15 7 8 1026.8 - 0.0
21/09:00pm 7.9 4.7 6.8 93 0.5 S 13 15 7 8 1026.5 1026.3 0.0
21/08:30pm 8.2 5.0 6.7 90 0.7 S 13 17 7 9 1026.3 - 0.0
21/08:00pm 8.6 4.5 6.4 86 1.0 SSE 17 19 9 10 1026.1 1025.9 0.0
21/07:30pm 9.5 5.4 6.4 81 1.5 SSE 17 19 9 10 1025.9 - 0.0
21/07:00pm 10.5 5.9 6.3 75 2.0 SE 20 28 11 15 1025.5 1025.3 0.0
21/06:30pm 10.9 6.2 6.1 72 2.3 SE 20 26 11 14 1025.1 - 0.0
21/06:00pm 11.9 7.1 5.5 65 3.1 SE 20 28 11 15 1024.8 1024.6 0.0
21/05:30pm 13.0 8.4 5.4 60 3.7 SE 19 26 10 14 1024.5 - 0.0
21/05:00pm 14.0 9.2 5.4 56 4.2 SE 20 30 11 16 1024.2 1023.9 0.0
21/04:30pm 15.3 11.4 5.5 52 4.8 ESE 15 26 8 14 1023.9 - 0.0
21/04:00pm 15.4 12.4 4.2 47 5.4 ESE 9 19 5 10 1023.7 1023.5 0.0
21/03:30pm 16.1 11.7 4.8 47 5.5 E 17 22 9 12 1023.6 - 0.0
21/03:00pm 16.1 12.3 6.0 51 5.0 NE 15 20 8 11 1023.5 1023.3 0.0
21/02:30pm 15.7 11.5 5.6 51 5.0 E 17 24 9 13 1023.8 - 0.0
21/02:00pm 15.1 11.0 6.1 55 4.5 E 17 26 9 14 1023.9 1023.7 0.0
21/01:30pm 14.9 10.4 6.2 56 4.3 E 19 24 10 13 1024.3 - 0.0
21/01:00pm 15.7 11.2 6.2 53 4.7 E 19 26 10 14 1024.4 1024.1 0.0
21/12:30pm 15.4 11.8 6.9 57 4.3 E 15 24 8 13 1024.8 - 0.0
21/12:00pm 14.3 10.9 5.7 56 4.2 E 13 24 7 13 1025.3 1025.1 0.0
21/11:30am 13.9 9.2 5.0 55 4.3 E 19 26 10 14 1025.8 - 0.0
21/11:00am 13.5 8.4 5.9 60 3.7 E 22 33 12 18 1026.2 1026.0 0.0
21/10:30am 12.6 7.0 5.5 62 3.4 E 24 32 13 17 1026.3 - 0.0
21/10:00am 11.3 6.2 5.8 69 2.6 E 22 28 12 15 1026.5 1026.3 0.0
21/09:30am 10.4 6.2 5.6 72 2.3 ESE 17 28 9 15 1026.6 - 0.0
21/09:00am 9.1 5.5 5.1 76 1.9 SE 13 20 7 11 1026.6 1026.4 0.0
21/08:30am 8.1 4.9 4.9 80 1.5 S 11 15 6 8 1026.4 - 0.0
21/08:00am 7.0 3.7 4.5 84 1.1 S 11 13 6 7 1026.2 1026.0 0.0
21/07:30am 5.9 2.4 3.7 86 1.0 SSW 11 13 6 7 1025.9 - 0.0
21/07:00am 5.3 1.8 3.3 87 0.9 S 11 13 6 7 1025.6 1025.4 0.0
21/06:30am 5.3 1.8 3.5 88 0.8 S 11 13 6 7 1025.2 - 0.0
21/06:00am 5.3 1.8 3.5 88 0.8 S 11 15 6 8 1025.1 1024.9 0.0
21/05:30am 5.1 1.5 3.1 87 0.9 SE 11 13 6 7 1024.9 - 0.0
21/05:00am 5.6 2.5 3.6 87 0.9 SSE 9 13 5 7 1024.9 1024.7 0.0
21/04:30am 5.5 2.0 3.5 87 0.9 SE 11 15 6 8 1024.7 - 0.0
21/04:00am 5.8 2.4 3.8 87 0.9 SE 11 17 6 9 1024.5 1024.2 0.0
21/03:30am 5.2 1.6 3.1 86 0.9 SSE 11 17 6 9 1024.5 - 0.0
21/03:00am 5.2 1.6 2.9 85 1.0 SSE 11 15 6 8 1024.4 1024.1 0.0
21/02:30am 5.6 2.0 2.9 83 1.2 SSE 11 15 6 8 1024.4 - 0.0
21/02:00am 6.3 2.4 3.3 81 1.3 SE 13 17 7 9 1024.6 1024.3 0.0
21/01:30am 6.4 2.1 3.0 79 1.5 SE 15 20 8 11 1024.7 - 0.0
21/01:00am 6.4 2.1 3.0 79 1.5 SE 15 17 8 9 1024.9 1024.7 0.0
21/12:30am 6.3 2.6 2.6 77 1.6 SE 11 15 6 8 1024.9 - 0.0
21/12:00am 7.1 2.7 2.8 74 1.9 ESE 15 20 8 11 1024.9 1024.7 0.0
 
Date/Time
EST
Temp
°C
App
Temp
°C
Dew
Point
Rel
Hum
%
Delta-T
°C
Wind Press
QNH
hPa
Press
MSL
hPa
Rain
since 9 am
mm
Dir
 
Spd
km/h
Gust
km/h
Spd
kts
Gust
kts
20/11:30pm 7.3 3.0 3.2 75 1.8 ESE 15 20 8 11 1024.9 - 0.0
20/11:00pm 7.5 2.5 3.6 76 1.7 ESE 19 26 10 14 1025.0 1024.8 0.0
20/10:30pm 8.1 3.1 3.8 74 1.9 ESE 19 24 10 13 1025.0 - 0.0
20/10:00pm 8.1 3.1 3.6 73 2.0 ESE 19 22 10 12 1025.0 1024.8 0.0
20/09:30pm 8.4 3.7 3.3 70 2.3 ESE 17 22 9 12 1025.0 - 0.0
20/09:00pm 8.9 4.2 3.1 67 2.6 ESE 17 24 9 13 1024.8 1024.6 0.0
20/08:30pm 8.6 3.9 3.2 69 2.4 ESE 17 24 9 13 1024.7 - 0.0
20/08:00pm 9.2 4.5 3.2 66 2.7 SE 17 22 9 12 1024.4 1024.1 0.0
20/07:30pm 9.8 5.1 3.1 63 3.0 ESE 17 22 9 12 1024.2 - 0.0
20/07:00pm 10.2 5.1 3.3 62 3.1 SE 19 24 10 13 1023.8 1023.6 0.0
20/06:30pm 10.7 5.5 3.3 60 3.4 SE 20 26 11 14 1023.4 - 0.0
20/06:00pm 10.6 5.6 3.4 61 3.3 SE 19 24 10 13 1023.0 1022.7 0.0
20/05:30pm 11.4 6.3 3.2 57 3.7 SSE 19 24 10 13 1022.8 - 0.0
20/05:00pm 12.8 7.5 3.2 52 4.4 SSE 20 28 11 15 1022.2 1022.0 0.0
20/04:30pm 13.7 8.5 3.5 50 4.8 SSE 20 32 11 17 1021.9 - 0.0
20/04:00pm 14.3 9.2 3.2 47 5.2 SSE 19 26 10 14 1021.8 1021.5 0.0
20/03:30pm 14.6 10.3 3.1 46 5.4 S 15 20 8 11 1021.9 - 0.0

Other Formats:

Comma delimited format used in spreadsheet applications
http://www.bom.gov.au/fwo/IDN60801/IDN60801.95728.axf

JavaScript Object Notation format (JSON) in row-major order
http://www.bom.gov.au/fwo/IDN60801/IDN60801.95728.json